Terminal Aerodrome Forecast
Issued by NWS Jacksonville, FL

Home | Current Version | Previous Version | Text Only | Print | Product List | Glossary On
Versions: 1 2 3 4 5 6 7 8 9 10 11 12 13 14 15 16 17 18 19 20 21 22 23 24 25 26 27
000
FTUS42 KJAX 191700
TAFSSI
TAF
KSSI 191721Z 1918/2018 03011KT 5SM -DZ BR OVC003
      TEMPO 1918/1921 2SM -RA BR
     FM192100 36009KT 5SM -DZ BR OVC003
      TEMPO 1921/2001 2SM -RA BR
     FM200300 36012G20KT P6SM OVC004
     FM201000 36014G22KT P6SM OVC006
     FM201500 36015G23KT P6SM BKN010=

USA.gov is the U.S. government's official web portal to all federal, state and local government web resources and services.